sensor_id;sensor_type;location;lat;lon;timestamp;P1;durP1;ratioP1;P2;durP2;ratioP2
7166;SDS011;3625;51.762;14.320;2022-08-21T00:00:40;20.73;;;17.08;;
7166;SDS011;3625;51.762;14.320;2022-08-21T00:03:10;20.70;;;16.15;;
7166;SDS011;3625;51.762;14.320;2022-08-21T00:05:42;25.10;;;19.35;;
7166;SDS011;3625;51.762;14.320;2022-08-21T00:08:12;23.55;;;18.98;;
7166;SDS011;3625;51.762;14.320;2022-08-21T00:10:41;25.15;;;19.63;;
7166;SDS011;3625;51.762;14.320;2022-08-21T00:13:11;24.02;;;19.65;;
7166;SDS011;3625;51.762;14.320;2022-08-21T00:15:44;22.20;;;18.42;;
7166;SDS011;3625;51.762;14.320;2022-08-21T00:18:14;25.95;;;19.42;;
7166;SDS011;3625;51.762;14.320;2022-08-21T00:20:46;23.58;;;19.70;;
7166;SDS011;3625;51.762;14.320;2022-08-21T00:23:15;22.23;;;18.23;;
7166;SDS011;3625;51.762;14.320;2022-08-21T00:25:44;24.38;;;20.05;;
7166;SDS011;3625;51.762;14.320;2022-08-21T00:28:14;24.45;;;20.25;;
7166;SDS011;3625;51.762;14.320;2022-08-21T00:30:43;22.27;;;17.30;;
7166;SDS011;3625;51.762;14.320;2022-08-21T00:33:12;22.48;;;17.80;;
7166;SDS011;3625;51.762;14.320;2022-08-21T00:35:42;24.60;;;18.85;;
7166;SDS011;3625;51.762;14.320;2022-08-21T00:38:12;23.65;;;18.17;;
7166;SDS011;3625;51.762;14.320;2022-08-21T00:40:42;26.08;;;20.10;;
7166;SDS011;3625;51.762;14.320;2022-08-21T00:43:16;23.55;;;18.85;;
7166;SDS011;3625;51.762;14.320;2022-08-21T00:45:49;24.15;;;17.95;;
7166;SDS011;3625;51.762;14.320;2022-08-21T00:48:19;25.02;;;20.38;;
7166;SDS011;3625;51.762;14.320;2022-08-21T00:50:50;23.52;;;17.33;;
7166;SDS011;3625;51.762;14.320;2022-08-21T00:53:26;26.50;;;19.38;;
7166;SDS011;3625;51.762;14.320;2022-08-21T00:55:57;25.65;;;20.33;;
7166;SDS011;3625;51.762;14.320;2022-08-21T00:58:29;27.50;;;20.02;;
7166;SDS011;3625;51.762;14.320;2022-08-21T01:01:03;25.08;;;19.40;;
7166;SDS011;3625;51.762;14.320;2022-08-21T01:03:34;25.17;;;19.55;;
7166;SDS011;3625;51.762;14.320;2022-08-21T01:06:09;25.50;;;18.73;;
7166;SDS011;3625;51.762;14.320;2022-08-21T01:08:39;24.92;;;19.52;;
7166;SDS011;3625;51.762;14.320;2022-08-21T01:11:12;24.95;;;19.63;;
7166;SDS011;3625;51.762;14.320;2022-08-21T01:13:42;25.35;;;20.60;;
7166;SDS011;3625;51.762;14.320;2022-08-21T01:16:13;27.83;;;20.08;;
7166;SDS011;3625;51.762;14.320;2022-08-21T01:18:47;24.27;;;18.75;;
7166;SDS011;3625;51.762;14.320;2022-08-21T01:21:21;24.77;;;18.27;;
7166;SDS011;3625;51.762;14.320;2022-08-21T01:23:54;25.33;;;20.10;;
7166;SDS011;3625;51.762;14.320;2022-08-21T01:26:26;25.95;;;21.98;;
7166;SDS011;3625;51.762;14.320;2022-08-21T01:29:02;24.95;;;19.58;;
7166;SDS011;3625;51.762;14.320;2022-08-21T01:31:37;28.25;;;22.02;;
7166;SDS011;3625;51.762;14.320;2022-08-21T01:34:06;27.08;;;20.33;;
7166;SDS011;3625;51.762;14.320;2022-08-21T01:36:37;25.98;;;20.50;;
7166;SDS011;3625;51.762;14.320;2022-08-21T01:39:06;28.48;;;20.33;;
7166;SDS011;3625;51.762;14.320;2022-08-21T01:41:36;25.10;;;18.85;;
7166;SDS011;3625;51.762;14.320;2022-08-21T01:44:05;25.80;;;20.48;;
7166;SDS011;3625;51.762;14.320;2022-08-21T01:46:34;29.80;;;22.13;;
7166;SDS011;3625;51.762;14.320;2022-08-21T01:49:03;25.42;;;19.92;;
7166;SDS011;3625;51.762;14.320;2022-08-21T01:51:32;25.52;;;20.55;;
7166;SDS011;3625;51.762;14.320;2022-08-21T01:54:02;21.95;;;19.35;;
7166;SDS011;3625;51.762;14.320;2022-08-21T01:56:35;24.20;;;19.63;;
7166;SDS011;3625;51.762;14.320;2022-08-21T01:59:05;25.75;;;20.38;;
7166;SDS011;3625;51.762;14.320;2022-08-21T02:01:35;27.50;;;20.58;;
7166;SDS011;3625;51.762;14.320;2022-08-21T02:04:06;26.13;;;20.10;;
7166;SDS011;3625;51.762;14.320;2022-08-21T02:06:35;26.52;;;19.90;;
7166;SDS011;3625;51.762;14.320;2022-08-21T02:09:06;24.20;;;19.00;;
7166;SDS011;3625;51.762;14.320;2022-08-21T02:11:38;22.27;;;19.88;;
7166;SDS011;3625;51.762;14.320;2022-08-21T02:14:08;23.67;;;20.17;;
7166;SDS011;3625;51.762;14.320;2022-08-21T02:16:37;24.88;;;20.75;;
7166;SDS011;3625;51.762;14.320;2022-08-21T02:19:08;25.30;;;19.38;;
7166;SDS011;3625;51.762;14.320;2022-08-21T02:21:37;23.25;;;18.98;;
7166;SDS011;3625;51.762;14.320;2022-08-21T02:24:08;24.23;;;21.33;;
7166;SDS011;3625;51.762;14.320;2022-08-21T02:26:38;26.00;;;20.17;;
7166;SDS011;3625;51.762;14.320;2022-08-21T02:29:07;21.95;;;19.50;;
7166;SDS011;3625;51.762;14.320;2022-08-21T02:31:36;22.42;;;19.80;;
7166;SDS011;3625;51.762;14.320;2022-08-21T02:34:05;22.73;;;19.15;;
7166;SDS011;3625;51.762;14.320;2022-08-21T02:36:35;23.00;;;19.80;;
7166;SDS011;3625;51.762;14.320;2022-08-21T02:39:04;21.13;;;18.98;;
7166;SDS011;3625;51.762;14.320;2022-08-21T02:41:34;23.00;;;18.27;;
7166;SDS011;3625;51.762;14.320;2022-08-21T02:44:03;19.75;;;17.63;;
7166;SDS011;3625;51.762;14.320;2022-08-21T02:46:32;17.88;;;15.88;;
7166;SDS011;3625;51.762;14.320;2022-08-21T02:49:01;20.45;;;18.02;;
7166;SDS011;3625;51.762;14.320;2022-08-21T02:51:30;21.13;;;18.35;;
7166;SDS011;3625;51.762;14.320;2022-08-21T02:53:59;19.27;;;16.13;;
7166;SDS011;3625;51.762;14.320;2022-08-21T02:56:27;24.20;;;18.90;;
7166;SDS011;3625;51.762;14.320;2022-08-21T02:58:58;20.88;;;16.85;;
7166;SDS011;3625;51.762;14.320;2022-08-21T03:01:27;22.00;;;17.58;;
7166;SDS011;3625;51.762;14.320;2022-08-21T03:03:56;21.45;;;17.77;;
7166;SDS011;3625;51.762;14.320;2022-08-21T03:06:25;20.65;;;18.08;;
7166;SDS011;3625;51.762;14.320;2022-08-21T03:08:55;21.05;;;18.17;;
7166;SDS011;3625;51.762;14.320;2022-08-21T03:11:24;19.05;;;16.42;;
7166;SDS011;3625;51.762;14.320;2022-08-21T03:13:52;18.63;;;16.50;;
7166;SDS011;3625;51.762;14.320;2022-08-21T03:16:23;17.98;;;15.98;;
7166;SDS011;3625;51.762;14.320;2022-08-21T03:18:51;18.52;;;15.05;;
7166;SDS011;3625;51.762;14.320;2022-08-21T03:21:20;15.43;;;13.82;;
7166;SDS011;3625;51.762;14.320;2022-08-21T03:23:50;18.33;;;15.18;;
7166;SDS011;3625;51.762;14.320;2022-08-21T03:26:20;17.15;;;14.98;;
7166;SDS011;3625;51.762;14.320;2022-08-21T03:28:52;13.98;;;12.57;;
7166;SDS011;3625;51.762;14.320;2022-08-21T03:31:24;16.77;;;13.23;;
7166;SDS011;3625;51.762;14.320;2022-08-21T03:33:55;19.45;;;14.35;;
7166;SDS011;3625;51.762;14.320;2022-08-21T03:36:24;18.23;;;13.60;;
7166;SDS011;3625;51.762;14.320;2022-08-21T03:38:53;16.70;;;12.23;;
7166;SDS011;3625;51.762;14.320;2022-08-21T03:41:22;17.02;;;11.88;;
7166;SDS011;3625;51.762;14.320;2022-08-21T03:43:50;15.52;;;11.88;;
7166;SDS011;3625;51.762;14.320;2022-08-21T03:46:19;15.38;;;12.55;;
7166;SDS011;3625;51.762;14.320;2022-08-21T03:48:50;12.90;;;10.82;;
7166;SDS011;3625;51.762;14.320;2022-08-21T03:51:19;15.13;;;12.35;;
7166;SDS011;3625;51.762;14.320;2022-08-21T03:53:48;14.98;;;10.55;;
7166;SDS011;3625;51.762;14.320;2022-08-21T03:56:17;12.35;;;11.02;;
7166;SDS011;3625;51.762;14.320;2022-08-21T03:58:46;13.80;;;10.88;;
7166;SDS011;3625;51.762;14.320;2022-08-21T04:01:15;14.32;;;10.95;;
7166;SDS011;3625;51.762;14.320;2022-08-21T04:03:44;12.50;;;11.05;;
7166;SDS011;3625;51.762;14.320;2022-08-21T04:06:14;16.48;;;12.35;;
7166;SDS011;3625;51.762;14.320;2022-08-21T04:08:44;15.60;;;11.57;;
7166;SDS011;3625;51.762;14.320;2022-08-21T04:11:13;15.63;;;12.52;;
7166;SDS011;3625;51.762;14.320;2022-08-21T04:13:42;14.23;;;12.05;;
7166;SDS011;3625;51.762;14.320;2022-08-21T04:16:11;14.00;;;12.60;;
7166;SDS011;3625;51.762;14.320;2022-08-21T04:18:41;12.95;;;11.43;;
7166;SDS011;3625;51.762;14.320;2022-08-21T04:21:10;15.98;;;12.05;;
7166;SDS011;3625;51.762;14.320;2022-08-21T04:23:42;14.55;;;11.80;;
7166;SDS011;3625;51.762;14.320;2022-08-21T04:26:10;12.32;;;10.98;;
7166;SDS011;3625;51.762;14.320;2022-08-21T04:28:39;16.02;;;11.23;;
7166;SDS011;3625;51.762;14.320;2022-08-21T04:31:09;13.85;;;11.60;;
7166;SDS011;3625;51.762;14.320;2022-08-21T04:33:39;13.35;;;11.55;;
7166;SDS011;3625;51.762;14.320;2022-08-21T04:36:08;15.25;;;11.55;;
7166;SDS011;3625;51.762;14.320;2022-08-21T04:38:37;16.38;;;12.88;;
7166;SDS011;3625;51.762;14.320;2022-08-21T04:41:11;15.93;;;11.93;;
7166;SDS011;3625;51.762;14.320;2022-08-21T04:43:40;13.70;;;11.77;;
7166;SDS011;3625;51.762;14.320;2022-08-21T04:46:09;12.98;;;11.65;;
7166;SDS011;3625;51.762;14.320;2022-08-21T04:48:39;16.13;;;13.25;;
7166;SDS011;3625;51.762;14.320;2022-08-21T04:51:09;15.30;;;13.00;;
7166;SDS011;3625;51.762;14.320;2022-08-21T04:53:44;15.25;;;13.18;;
7166;SDS011;3625;51.762;14.320;2022-08-21T04:56:23;17.05;;;12.75;;
7166;SDS011;3625;51.762;14.320;2022-08-21T04:58:58;17.27;;;13.13;;
7166;SDS011;3625;51.762;14.320;2022-08-21T05:01:32;16.92;;;12.50;;
7166;SDS011;3625;51.762;14.320;2022-08-21T05:04:05;15.63;;;13.60;;
7166;SDS011;3625;51.762;14.320;2022-08-21T05:06:37;15.77;;;13.07;;
7166;SDS011;3625;51.762;14.320;2022-08-21T05:09:11;16.55;;;13.45;;
7166;SDS011;3625;51.762;14.320;2022-08-21T05:11:44;14.52;;;12.82;;
7166;SDS011;3625;51.762;14.320;2022-08-21T05:14:14;16.42;;;14.52;;
7166;SDS011;3625;51.762;14.320;2022-08-21T05:16:43;17.67;;;13.70;;
7166;SDS011;3625;51.762;14.320;2022-08-21T05:19:12;16.40;;;14.70;;
7166;SDS011;3625;51.762;14.320;2022-08-21T05:21:43;15.65;;;12.98;;
7166;SDS011;3625;51.762;14.320;2022-08-21T05:24:14;19.40;;;16.02;;
7166;SDS011;3625;51.762;14.320;2022-08-21T05:26:52;15.23;;;13.60;;
7166;SDS011;3625;51.762;14.320;2022-08-21T05:29:21;18.08;;;13.82;;
7166;SDS011;3625;51.762;14.320;2022-08-21T05:31:50;15.52;;;13.35;;
7166;SDS011;3625;51.762;14.320;2022-08-21T05:34:20;15.90;;;13.55;;
7166;SDS011;3625;51.762;14.320;2022-08-21T05:36:50;15.18;;;13.45;;
7166;SDS011;3625;51.762;14.320;2022-08-21T05:39:19;15.15;;;13.55;;
7166;SDS011;3625;51.762;14.320;2022-08-21T05:41:48;18.77;;;15.40;;
7166;SDS011;3625;51.762;14.320;2022-08-21T05:44:19;18.17;;;15.25;;
7166;SDS011;3625;51.762;14.320;2022-08-21T05:46:48;17.48;;;14.63;;
7166;SDS011;3625;51.762;14.320;2022-08-21T05:49:17;17.58;;;15.70;;
7166;SDS011;3625;51.762;14.320;2022-08-21T05:51:46;17.02;;;15.27;;
7166;SDS011;3625;51.762;14.320;2022-08-21T05:54:15;15.10;;;13.63;;
7166;SDS011;3625;51.762;14.320;2022-08-21T05:56:43;14.52;;;12.65;;
7166;SDS011;3625;51.762;14.320;2022-08-21T05:59:12;15.48;;;13.88;;
7166;SDS011;3625;51.762;14.320;2022-08-21T06:01:43;16.48;;;13.93;;
7166;SDS011;3625;51.762;14.320;2022-08-21T06:04:12;15.00;;;13.60;;
7166;SDS011;3625;51.762;14.320;2022-08-21T06:06:42;13.63;;;12.18;;
7166;SDS011;3625;51.762;14.320;2022-08-21T06:09:11;14.93;;;13.32;;
7166;SDS011;3625;51.762;14.320;2022-08-21T06:11:40;16.17;;;14.27;;
7166;SDS011;3625;51.762;14.320;2022-08-21T06:14:08;14.13;;;12.65;;
7166;SDS011;3625;51.762;14.320;2022-08-21T06:16:38;14.90;;;12.85;;
7166;SDS011;3625;51.762;14.320;2022-08-21T06:19:08;12.98;;;11.68;;
7166;SDS011;3625;51.762;14.320;2022-08-21T06:21:37;12.90;;;11.50;;
7166;SDS011;3625;51.762;14.320;2022-08-21T06:24:06;14.38;;;11.40;;
7166;SDS011;3625;51.762;14.320;2022-08-21T06:26:35;12.85;;;11.55;;
7166;SDS011;3625;51.762;14.320;2022-08-21T06:29:07;11.90;;;10.70;;
7166;SDS011;3625;51.762;14.320;2022-08-21T06:31:38;11.07;;;10.02;;
7166;SDS011;3625;51.762;14.320;2022-08-21T06:34:10;11.52;;;10.02;;
7166;SDS011;3625;51.762;14.320;2022-08-21T06:36:39;10.00;;;9.00;;
7166;SDS011;3625;51.762;14.320;2022-08-21T06:39:11;10.57;;;9.50;;
7166;SDS011;3625;51.762;14.320;2022-08-21T06:41:50;9.32;;;8.40;;
7166;SDS011;3625;51.762;14.320;2022-08-21T06:44:27;8.80;;;7.90;;
7166;SDS011;3625;51.762;14.320;2022-08-21T06:46:58;9.70;;;8.68;;
7166;SDS011;3625;51.762;14.320;2022-08-21T06:49:28;10.32;;;9.23;;
7166;SDS011;3625;51.762;14.320;2022-08-21T06:51:58;12.15;;;7.45;;
7166;SDS011;3625;51.762;14.320;2022-08-21T06:54:28;8.43;;;7.70;;
7166;SDS011;3625;51.762;14.320;2022-08-21T06:56:57;8.20;;;7.40;;
7166;SDS011;3625;51.762;14.320;2022-08-21T06:59:25;9.10;;;7.55;;
7166;SDS011;3625;51.762;14.320;2022-08-21T07:01:54;9.13;;;7.63;;
7166;SDS011;3625;51.762;14.320;2022-08-21T07:04:23;9.45;;;7.60;;
7166;SDS011;3625;51.762;14.320;2022-08-21T07:06:54;9.18;;;7.65;;
7166;SDS011;3625;51.762;14.320;2022-08-21T07:09:23;8.85;;;7.63;;
7166;SDS011;3625;51.762;14.320;2022-08-21T07:11:53;8.52;;;7.15;;
7166;SDS011;3625;51.762;14.320;2022-08-21T07:14:23;9.00;;;8.10;;
7166;SDS011;3625;51.762;14.320;2022-08-21T07:16:53;8.63;;;7.72;;
7166;SDS011;3625;51.762;14.320;2022-08-21T07:19:21;8.48;;;6.82;;
7166;SDS011;3625;51.762;14.320;2022-08-21T07:21:50;7.88;;;7.13;;
7166;SDS011;3625;51.762;14.320;2022-08-21T07:24:26;7.47;;;6.70;;
7166;SDS011;3625;51.762;14.320;2022-08-21T07:26:55;6.95;;;6.35;;
7166;SDS011;3625;51.762;14.320;2022-08-21T07:29:24;7.22;;;6.28;;
7166;SDS011;3625;51.762;14.320;2022-08-21T07:31:53;7.70;;;6.15;;
7166;SDS011;3625;51.762;14.320;2022-08-21T07:34:22;7.78;;;6.00;;
7166;SDS011;3625;51.762;14.320;2022-08-21T07:36:51;8.27;;;6.15;;
7166;SDS011;3625;51.762;14.320;2022-08-21T07:39:21;5.95;;;5.22;;
7166;SDS011;3625;51.762;14.320;2022-08-21T07:41:50;6.75;;;5.32;;
7166;SDS011;3625;51.762;14.320;2022-08-21T07:44:19;6.43;;;5.75;;
7166;SDS011;3625;51.762;14.320;2022-08-21T07:46:47;5.95;;;5.40;;
7166;SDS011;3625;51.762;14.320;2022-08-21T07:49:16;6.25;;;5.13;;
7166;SDS011;3625;51.762;14.320;2022-08-21T07:51:45;5.78;;;5.22;;
7166;SDS011;3625;51.762;14.320;2022-08-21T07:54:14;7.72;;;5.38;;
7166;SDS011;3625;51.762;14.320;2022-08-21T07:56:52;6.22;;;5.53;;
7166;SDS011;3625;51.762;14.320;2022-08-21T07:59:21;5.25;;;4.70;;
7166;SDS011;3625;51.762;14.320;2022-08-21T08:01:50;7.03;;;4.60;;
7166;SDS011;3625;51.762;14.320;2022-08-21T08:04:18;7.40;;;4.80;;
7166;SDS011;3625;51.762;14.320;2022-08-21T08:06:51;5.43;;;4.70;;
7166;SDS011;3625;51.762;14.320;2022-08-21T08:09:20;4.45;;;4.05;;
7166;SDS011;3625;51.762;14.320;2022-08-21T08:11:49;7.55;;;4.80;;
7166;SDS011;3625;51.762;14.320;2022-08-21T08:14:20;5.20;;;4.68;;
7166;SDS011;3625;51.762;14.320;2022-08-21T08:16:57;4.50;;;3.85;;
7166;SDS011;3625;51.762;14.320;2022-08-21T08:19:25;5.28;;;3.95;;
7166;SDS011;3625;51.762;14.320;2022-08-21T08:21:56;6.07;;;4.13;;
7166;SDS011;3625;51.762;14.320;2022-08-21T08:24:25;6.95;;;4.10;;
7166;SDS011;3625;51.762;14.320;2022-08-21T08:26:55;6.28;;;3.78;;
7166;SDS011;3625;51.762;14.320;2022-08-21T08:29:24;5.63;;;4.05;;
7166;SDS011;3625;51.762;14.320;2022-08-21T08:31:55;6.68;;;3.80;;
7166;SDS011;3625;51.762;14.320;2022-08-21T08:34:24;5.50;;;3.78;;
7166;SDS011;3625;51.762;14.320;2022-08-21T08:36:53;5.30;;;3.60;;
7166;SDS011;3625;51.762;14.320;2022-08-21T08:39:24;3.95;;;3.25;;
7166;SDS011;3625;51.762;14.320;2022-08-21T08:41:58;7.60;;;3.58;;
7166;SDS011;3625;51.762;14.320;2022-08-21T08:44:55;5.65;;;3.45;;
7166;SDS011;3625;51.762;14.320;2022-08-21T08:47:30;5.47;;;2.67;;
7166;SDS011;3625;51.762;14.320;2022-08-21T08:50:04;6.57;;;2.80;;
7166;SDS011;3625;51.762;14.320;2022-08-21T08:52:40;4.93;;;2.78;;
7166;SDS011;3625;51.762;14.320;2022-08-21T08:55:17;6.38;;;3.08;;
7166;SDS011;3625;51.762;14.320;2022-08-21T08:57:54;4.68;;;2.70;;
7166;SDS011;3625;51.762;14.320;2022-08-21T09:00:28;3.67;;;2.60;;
7166;SDS011;3625;51.762;14.320;2022-08-21T09:02:59;6.32;;;3.22;;
7166;SDS011;3625;51.762;14.320;2022-08-21T09:05:32;3.20;;;2.75;;
7166;SDS011;3625;51.762;14.320;2022-08-21T09:08:15;5.22;;;2.80;;
7166;SDS011;3625;51.762;14.320;2022-08-21T09:11:19;4.72;;;2.60;;
7166;SDS011;3625;51.762;14.320;2022-08-21T09:14:04;8.30;;;3.88;;
7166;SDS011;3625;51.762;14.320;2022-08-21T09:16:46;5.22;;;2.83;;
7166;SDS011;3625;51.762;14.320;2022-08-21T09:19:33;3.53;;;2.30;;
7166;SDS011;3625;51.762;14.320;2022-08-21T09:22:23;2.72;;;2.40;;
7166;SDS011;3625;51.762;14.320;2022-08-21T09:25:08;5.80;;;2.88;;
7166;SDS011;3625;51.762;14.320;2022-08-21T09:27:48;3.15;;;2.15;;
7166;SDS011;3625;51.762;14.320;2022-08-21T09:30:42;3.75;;;2.30;;
7166;SDS011;3625;51.762;14.320;2022-08-21T09:33:18;4.07;;;2.40;;
7166;SDS011;3625;51.762;14.320;2022-08-21T09:35:48;4.95;;;2.30;;
7166;SDS011;3625;51.762;14.320;2022-08-21T09:38:25;5.95;;;2.20;;
7166;SDS011;3625;51.762;14.320;2022-08-21T09:41:00;4.32;;;2.85;;
7166;SDS011;3625;51.762;14.320;2022-08-21T09:43:33;5.45;;;2.35;;
7166;SDS011;3625;51.762;14.320;2022-08-21T09:46:06;5.00;;;2.22;;
7166;SDS011;3625;51.762;14.320;2022-08-21T09:48:40;4.22;;;2.50;;
7166;SDS011;3625;51.762;14.320;2022-08-21T09:51:14;7.00;;;2.85;;
7166;SDS011;3625;51.762;14.320;2022-08-21T09:53:46;5.32;;;2.50;;
7166;SDS011;3625;51.762;14.320;2022-08-21T09:56:20;4.60;;;2.30;;
7166;SDS011;3625;51.762;14.320;2022-08-21T09:59:14;3.58;;;2.40;;
7166;SDS011;3625;51.762;14.320;2022-08-21T10:01:49;6.40;;;2.40;;
7166;SDS011;3625;51.762;14.320;2022-08-21T10:04:22;5.75;;;2.33;;
7166;SDS011;3625;51.762;14.320;2022-08-21T10:07:08;3.75;;;2.25;;
7166;SDS011;3625;51.762;14.320;2022-08-21T10:09:39;2.50;;;2.10;;
7166;SDS011;3625;51.762;14.320;2022-08-21T10:12:14;2.80;;;2.10;;
7166;SDS011;3625;51.762;14.320;2022-08-21T10:14:50;4.55;;;2.60;;
7166;SDS011;3625;51.762;14.320;2022-08-21T10:17:37;3.95;;;2.20;;
7166;SDS011;3625;51.762;14.320;2022-08-21T10:20:17;3.63;;;2.20;;
7166;SDS011;3625;51.762;14.320;2022-08-21T10:23:00;4.47;;;1.83;;
7166;SDS011;3625;51.762;14.320;2022-08-21T10:25:50;4.10;;;2.60;;
7166;SDS011;3625;51.762;14.320;2022-08-21T10:28:41;5.32;;;2.20;;
7166;SDS011;3625;51.762;14.320;2022-08-21T10:31:28;2.92;;;1.88;;
7166;SDS011;3625;51.762;14.320;2022-08-21T10:34:19;4.88;;;2.17;;
7166;SDS011;3625;51.762;14.320;2022-08-21T10:37:15;3.53;;;2.38;;
7166;SDS011;3625;51.762;14.320;2022-08-21T10:40:04;2.30;;;2.10;;
7166;SDS011;3625;51.762;14.320;2022-08-21T10:42:52;3.28;;;2.35;;
7166;SDS011;3625;51.762;14.320;2022-08-21T10:45:42;2.65;;;2.08;;
7166;SDS011;3625;51.762;14.320;2022-08-21T10:48:25;5.22;;;2.70;;
7166;SDS011;3625;51.762;14.320;2022-08-21T10:51:06;2.95;;;2.10;;
7166;SDS011;3625;51.762;14.320;2022-08-21T10:53:56;3.30;;;2.15;;
7166;SDS011;3625;51.762;14.320;2022-08-21T10:56:34;3.70;;;1.92;;
7166;SDS011;3625;51.762;14.320;2022-08-21T10:59:17;3.88;;;1.88;;
7166;SDS011;3625;51.762;14.320;2022-08-21T11:02:15;3.45;;;1.90;;
7166;SDS011;3625;51.762;14.320;2022-08-21T11:05:25;5.38;;;1.95;;
7166;SDS011;3625;51.762;14.320;2022-08-21T11:08:26;4.60;;;2.00;;
7166;SDS011;3625;51.762;14.320;2022-08-21T11:11:26;2.83;;;2.05;;
7166;SDS011;3625;51.762;14.320;2022-08-21T11:14:02;3.72;;;2.10;;
7166;SDS011;3625;51.762;14.320;2022-08-21T11:16:48;3.38;;;2.10;;
7166;SDS011;3625;51.762;14.320;2022-08-21T11:19:28;4.30;;;2.22;;
7166;SDS011;3625;51.762;14.320;2022-08-21T11:22:05;3.15;;;1.85;;
7166;SDS011;3625;51.762;14.320;2022-08-21T11:24:44;2.95;;;2.00;;
7166;SDS011;3625;51.762;14.320;2022-08-21T11:27:25;2.78;;;1.90;;
7166;SDS011;3625;51.762;14.320;2022-08-21T11:30:05;3.13;;;1.75;;
7166;SDS011;3625;51.762;14.320;2022-08-21T11:35:54;4.60;;;2.25;;
7166;SDS011;3625;51.762;14.320;2022-08-21T11:38:34;3.70;;;2.13;;
7166;SDS011;3625;51.762;14.320;2022-08-21T11:41:17;2.90;;;2.05;;
7166;SDS011;3625;51.762;14.320;2022-08-21T11:44:00;5.50;;;2.70;;
7166;SDS011;3625;51.762;14.320;2022-08-21T11:46:44;3.80;;;2.10;;
7166;SDS011;3625;51.762;14.320;2022-08-21T11:49:34;6.25;;;2.83;;
7166;SDS011;3625;51.762;14.320;2022-08-21T11:52:25;3.90;;;2.28;;
7166;SDS011;3625;51.762;14.320;2022-08-21T11:55:02;3.90;;;2.30;;
7166;SDS011;3625;51.762;14.320;2022-08-21T11:57:52;2.20;;;1.77;;
7166;SDS011;3625;51.762;14.320;2022-08-21T12:00:29;2.38;;;2.00;;
7166;SDS011;3625;51.762;14.320;2022-08-21T12:03:10;3.05;;;1.92;;
7166;SDS011;3625;51.762;14.320;2022-08-21T12:05:54;3.20;;;2.00;;
7166;SDS011;3625;51.762;14.320;2022-08-21T12:08:32;2.28;;;1.80;;
7166;SDS011;3625;51.762;14.320;2022-08-21T12:11:07;3.00;;;1.92;;
7166;SDS011;3625;51.762;14.320;2022-08-21T12:13:58;3.03;;;2.00;;
7166;SDS011;3625;51.762;14.320;2022-08-21T12:16:43;2.08;;;1.70;;
7166;SDS011;3625;51.762;14.320;2022-08-21T12:19:27;4.43;;;1.63;;
7166;SDS011;3625;51.762;14.320;2022-08-21T12:21:59;2.10;;;1.80;;
7166;SDS011;3625;51.762;14.320;2022-08-21T12:24:40;2.53;;;1.90;;
7166;SDS011;3625;51.762;14.320;2022-08-21T12:27:19;3.00;;;1.88;;
7166;SDS011;3625;51.762;14.320;2022-08-21T12:30:20;2.45;;;1.70;;
7166;SDS011;3625;51.762;14.320;2022-08-21T12:33:02;5.00;;;1.80;;
7166;SDS011;3625;51.762;14.320;2022-08-21T12:35:36;3.20;;;1.90;;
7166;SDS011;3625;51.762;14.320;2022-08-21T12:38:12;3.85;;;2.08;;
7166;SDS011;3625;51.762;14.320;2022-08-21T12:40:50;1.42;;;1.33;;
7166;SDS011;3625;51.762;14.320;2022-08-21T12:43:25;2.20;;;1.63;;
7166;SDS011;3625;51.762;14.320;2022-08-21T12:46:04;2.00;;;1.63;;
7166;SDS011;3625;51.762;14.320;2022-08-21T12:48:35;3.20;;;1.88;;
7166;SDS011;3625;51.762;14.320;2022-08-21T12:51:17;2.65;;;1.70;;
7166;SDS011;3625;51.762;14.320;2022-08-21T12:53:52;3.10;;;1.77;;
7166;SDS011;3625;51.762;14.320;2022-08-21T12:56:24;2.92;;;1.80;;
7166;SDS011;3625;51.762;14.320;2022-08-21T12:59:00;2.63;;;1.63;;
7166;SDS011;3625;51.762;14.320;2022-08-21T13:01:35;1.90;;;1.40;;
7166;SDS011;3625;51.762;14.320;2022-08-21T13:04:15;3.40;;;2.10;;
7166;SDS011;3625;51.762;14.320;2022-08-21T13:06:54;2.45;;;1.90;;
7166;SDS011;3625;51.762;14.320;2022-08-21T13:09:28;2.58;;;1.80;;
7166;SDS011;3625;51.762;14.320;2022-08-21T13:11:59;3.90;;;1.95;;
7166;SDS011;3625;51.762;14.320;2022-08-21T13:14:29;3.30;;;1.85;;
7166;SDS011;3625;51.762;14.320;2022-08-21T13:17:15;3.38;;;1.90;;
7166;SDS011;3625;51.762;14.320;2022-08-21T13:19:52;2.60;;;1.65;;
7166;SDS011;3625;51.762;14.320;2022-08-21T13:22:25;2.83;;;1.75;;
7166;SDS011;3625;51.762;14.320;2022-08-21T13:25:00;2.72;;;1.40;;
7166;SDS011;3625;51.762;14.320;2022-08-21T13:27:33;3.17;;;1.70;;
7166;SDS011;3625;51.762;14.320;2022-08-21T13:30:03;3.67;;;1.80;;
7166;SDS011;3625;51.762;14.320;2022-08-21T13:32:42;3.22;;;1.70;;
7166;SDS011;3625;51.762;14.320;2022-08-21T13:35:20;2.58;;;1.75;;
7166;SDS011;3625;51.762;14.320;2022-08-21T13:37:53;3.55;;;1.95;;
7166;SDS011;3625;51.762;14.320;2022-08-21T13:40:24;3.05;;;2.53;;
7166;SDS011;3625;51.762;14.320;2022-08-21T13:43:02;2.83;;;1.90;;
7166;SDS011;3625;51.762;14.320;2022-08-21T13:45:32;2.88;;;1.67;;
7166;SDS011;3625;51.762;14.320;2022-08-21T13:48:04;2.90;;;1.88;;
7166;SDS011;3625;51.762;14.320;2022-08-21T13:50:33;3.83;;;2.00;;
7166;SDS011;3625;51.762;14.320;2022-08-21T13:53:18;3.97;;;2.00;;
7166;SDS011;3625;51.762;14.320;2022-08-21T13:55:50;2.20;;;1.48;;
7166;SDS011;3625;51.762;14.320;2022-08-21T13:58:26;2.75;;;2.00;;
7166;SDS011;3625;51.762;14.320;2022-08-21T14:00:58;2.92;;;1.75;;
7166;SDS011;3625;51.762;14.320;2022-08-21T14:03:34;3.38;;;1.67;;
7166;SDS011;3625;51.762;14.320;2022-08-21T14:06:12;3.13;;;1.88;;
7166;SDS011;3625;51.762;14.320;2022-08-21T14:08:49;2.38;;;1.92;;
7166;SDS011;3625;51.762;14.320;2022-08-21T14:11:22;3.28;;;2.00;;
7166;SDS011;3625;51.762;14.320;2022-08-21T14:13:56;3.33;;;1.95;;
7166;SDS011;3625;51.762;14.320;2022-08-21T14:16:40;3.58;;;2.17;;
7166;SDS011;3625;51.762;14.320;2022-08-21T14:19:19;2.13;;;1.80;;
7166;SDS011;3625;51.762;14.320;2022-08-21T14:21:52;2.65;;;1.80;;
7166;SDS011;3625;51.762;14.320;2022-08-21T14:24:26;5.05;;;1.92;;
7166;SDS011;3625;51.762;14.320;2022-08-21T14:31:20;2.60;;;1.90;;
7166;SDS011;3625;51.762;14.320;2022-08-21T14:34:28;1.92;;;1.70;;
7166;SDS011;3625;51.762;14.320;2022-08-21T14:37:09;4.63;;;2.08;;
7166;SDS011;3625;51.762;14.320;2022-08-21T14:39:50;3.70;;;1.70;;
7166;SDS011;3625;51.762;14.320;2022-08-21T14:46:21;3.92;;;1.77;;
7166;SDS011;3625;51.762;14.320;2022-08-21T14:49:56;3.17;;;2.00;;
7166;SDS011;3625;51.762;14.320;2022-08-21T14:52:29;2.58;;;1.85;;
7166;SDS011;3625;51.762;14.320;2022-08-21T14:54:59;2.53;;;1.83;;
7166;SDS011;3625;51.762;14.320;2022-08-21T14:57:35;2.85;;;1.90;;
7166;SDS011;3625;51.762;14.320;2022-08-21T15:00:34;3.72;;;1.70;;
7166;SDS011;3625;51.762;14.320;2022-08-21T15:05:57;2.75;;;1.75;;
7166;SDS011;3625;51.762;14.320;2022-08-21T15:08:27;4.78;;;2.08;;
7166;SDS011;3625;51.762;14.320;2022-08-21T15:10:56;3.58;;;1.80;;
7166;SDS011;3625;51.762;14.320;2022-08-21T15:13:38;2.38;;;1.85;;
7166;SDS011;3625;51.762;14.320;2022-08-21T15:16:07;3.45;;;1.70;;
7166;SDS011;3625;51.762;14.320;2022-08-21T15:18:38;3.45;;;1.98;;
7166;SDS011;3625;51.762;14.320;2022-08-21T15:21:10;3.50;;;1.88;;
7166;SDS011;3625;51.762;14.320;2022-08-21T15:23:40;2.33;;;1.70;;
7166;SDS011;3625;51.762;14.320;2022-08-21T15:26:09;4.25;;;2.28;;
7166;SDS011;3625;51.762;14.320;2022-08-21T15:28:38;2.20;;;1.98;;
7166;SDS011;3625;51.762;14.320;2022-08-21T15:31:08;2.20;;;1.70;;
7166;SDS011;3625;51.762;14.320;2022-08-21T15:33:37;2.28;;;1.63;;
7166;SDS011;3625;51.762;14.320;2022-08-21T15:36:06;4.95;;;1.98;;
7166;SDS011;3625;51.762;14.320;2022-08-21T15:38:37;1.98;;;1.88;;
7166;SDS011;3625;51.762;14.320;2022-08-21T15:41:06;3.17;;;1.83;;
7166;SDS011;3625;51.762;14.320;2022-08-21T15:43:37;2.63;;;1.85;;
7166;SDS011;3625;51.762;14.320;2022-08-21T15:46:12;1.80;;;1.63;;